createdAt,value
2017-01-09T00:00:42.775Z,15.8
2017-01-09T00:01:53.679Z,15.76
2017-01-09T00:03:05.009Z,15.75
2017-01-09T00:04:15.934Z,15.83
2017-01-09T00:05:27.259Z,15.84
2017-01-09T00:06:38.200Z,15.82
2017-01-09T00:07:49.102Z,15.76
2017-01-09T00:09:00.003Z,15.75
2017-01-09T00:10:11.320Z,15.82
2017-01-09T00:11:21.785Z,15.84
2017-01-09T00:12:32.758Z,15.83
2017-01-09T00:13:44.082Z,15.74
2017-01-09T00:14:54.981Z,15.74
2017-01-09T00:16:05.893Z,15.82
2017-01-09T00:17:16.799Z,15.82
2017-01-09T00:18:28.164Z,15.84
2017-01-09T00:19:39.069Z,15.78
2017-01-09T00:20:50.398Z,15.78
2017-01-09T00:22:01.724Z,15.87
2017-01-09T00:23:13.045Z,15.89
2017-01-09T00:24:23.998Z,15.82
2017-01-09T00:25:34.900Z,15.78
2017-01-09T00:26:45.368Z,15.86
2017-01-09T00:27:56.694Z,15.89
2017-01-09T00:29:07.591Z,15.86
2017-01-09T00:30:18.568Z,15.83
2017-01-09T00:31:29.470Z,15.8
2017-01-09T00:32:40.795Z,15.74
2017-01-09T00:33:51.688Z,15.86
2017-01-09T00:35:03.009Z,15.83
2017-01-09T00:36:13.526Z,15.84
2017-01-09T00:37:24.847Z,15.9
2017-01-09T00:38:35.744Z,15.86
2017-01-09T00:39:46.669Z,15.9
2017-01-09T00:40:57.995Z,15.74
2017-01-09T00:42:09.364Z,15.9
2017-01-09T00:43:20.278Z,15.78
2017-01-09T00:44:31.182Z,15.94
2017-01-09T00:45:42.500Z,15.84
2017-01-09T00:46:53.409Z,15.87
2017-01-09T00:48:04.806Z,15.92
2017-01-09T00:49:16.135Z,15.89
2017-01-09T00:50:27.036Z,15.78
2017-01-09T00:51:38.362Z,15.83
2017-01-09T00:52:49.263Z,15.9
2017-01-09T00:54:00.636Z,15.84
2017-01-09T00:55:11.541Z,15.89
2017-01-09T00:56:22.442Z,15.78
2017-01-09T00:57:33.343Z,15.92
2017-01-09T00:58:44.241Z,15.83
2017-01-09T00:59:55.178Z,15.86
2017-01-09T01:01:06.071Z,15.9
2017-01-09T01:02:17.396Z,15.92
2017-01-09T01:03:28.719Z,15.84
2017-01-09T01:04:39.651Z,15.86
2017-01-09T01:05:51.019Z,15.89
2017-01-09T01:07:01.917Z,15.84
2017-01-09T01:08:12.822Z,15.83
2017-01-09T01:09:24.147Z,15.83
2017-01-09T01:10:35.044Z,15.84
2017-01-09T01:11:45.994Z,15.84
2017-01-09T01:12:57.318Z,15.84
2017-01-09T01:14:08.644Z,15.8
2017-01-09T01:15:19.543Z,15.78
2017-01-09T01:16:30.906Z,15.76
2017-01-09T01:17:41.851Z,15.84
2017-01-09T01:18:53.177Z,15.8
2017-01-09T01:20:04.510Z,15.86
2017-01-09T01:21:15.835Z,15.78
2017-01-09T01:22:27.168Z,15.82
2017-01-09T01:23:38.117Z,15.84
2017-01-09T01:24:49.446Z,15.86
2017-01-09T01:26:00.772Z,15.78
2017-01-09T01:27:11.668Z,15.83
2017-01-09T01:28:22.998Z,15.82
2017-01-09T01:29:34.380Z,15.84
2017-01-09T01:30:45.709Z,15.8
2017-01-09T01:31:56.602Z,15.83
2017-01-09T01:33:07.919Z,15.89
2017-01-09T01:34:19.252Z,15.84
2017-01-09T01:35:30.639Z,15.76
2017-01-09T01:36:41.983Z,15.8
2017-01-09T01:37:52.884Z,15.72
2017-01-09T01:39:03.781Z,15.75
2017-01-09T01:40:15.114Z,15.74
2017-01-09T01:41:26.487Z,15.75
2017-01-09T01:42:37.388Z,15.71
2017-01-09T01:43:48.710Z,15.76
2017-01-09T01:45:00.031Z,15.72
2017-01-09T01:46:10.928Z,15.83
2017-01-09T01:47:21.873Z,15.76
2017-01-09T01:48:32.770Z,15.72
2017-01-09T01:49:44.099Z,15.72
2017-01-09T01:50:54.992Z,15.72
2017-01-09T01:52:06.314Z,15.76
2017-01-09T01:53:17.355Z,15.68
2017-01-09T01:54:28.682Z,15.72
2017-01-09T01:55:40.013Z,15.69
2017-01-09T01:56:51.346Z,15.69
2017-01-09T01:58:01.820Z,15.72
2017-01-09T01:59:13.253Z,15.71
2017-01-09T02:00:24.574Z,15.69
2017-01-09T02:01:35.507Z,15.71
2017-01-09T02:02:46.832Z,15.69
2017-01-09T02:03:58.169Z,15.65
2017-01-09T02:05:09.122Z,15.69
2017-01-09T02:06:20.016Z,15.67
2017-01-09T02:07:30.913Z,15.68
2017-01-09T02:08:41.811Z,15.67
2017-01-09T02:09:52.707Z,15.64
2017-01-09T02:11:03.661Z,15.68
2017-01-09T02:12:14.558Z,15.67
2017-01-09T02:13:25.883Z,15.65
2017-01-09T02:14:36.784Z,15.67
2017-01-09T02:15:48.105Z,15.62
2017-01-09T02:16:59.055Z,15.62
2017-01-09T02:18:10.388Z,15.54
2017-01-09T02:19:21.713Z,15.64
2017-01-09T02:20:33.034Z,15.62
2017-01-09T02:21:43.931Z,15.59
2017-01-09T02:22:54.881Z,15.65
2017-01-09T02:24:06.219Z,15.56
2017-01-09T02:25:17.123Z,15.65
2017-01-09T02:26:28.020Z,15.64
2017-01-09T02:27:38.489Z,15.68
2017-01-09T02:28:49.427Z,15.67
2017-01-09T02:30:00.319Z,15.64
2017-01-09T02:31:11.636Z,15.68
2017-01-09T02:32:22.530Z,15.59
2017-01-09T02:33:33.423Z,15.59
2017-01-09T02:34:44.364Z,15.53
2017-01-09T02:35:55.694Z,15.51
2017-01-09T02:37:06.587Z,15.67
2017-01-09T02:38:17.480Z,15.59
2017-01-09T02:39:28.801Z,15.6
2017-01-09T02:40:39.758Z,15.54
2017-01-09T02:41:51.111Z,15.49
2017-01-09T02:43:02.433Z,15.53
2017-01-09T02:44:13.762Z,15.59
2017-01-09T02:45:25.083Z,15.53
2017-01-09T02:46:36.092Z,15.49
2017-01-09T02:47:46.985Z,15.43
2017-01-09T02:48:57.890Z,15.49
2017-01-09T02:50:09.216Z,15.44
2017-01-09T02:51:19.684Z,15.56
2017-01-09T02:52:30.630Z,15.53
2017-01-09T02:53:41.975Z,15.54
2017-01-09T02:54:53.296Z,15.49
2017-01-09T02:56:04.657Z,15.56
2017-01-09T02:57:16.018Z,15.59
2017-01-09T02:58:26.983Z,15.57
2017-01-09T02:59:37.452Z,15.49
2017-01-09T03:00:48.773Z,15.49
2017-01-09T03:02:00.091Z,15.53
2017-01-09T03:03:10.996Z,15.38
2017-01-09T03:04:22.365Z,15.53
2017-01-09T03:05:33.278Z,15.41
2017-01-09T03:06:44.175Z,15.38
2017-01-09T03:07:55.079Z,15.39
2017-01-09T03:09:06.405Z,15.46
2017-01-09T03:10:17.342Z,15.47
2017-01-09T03:11:28.251Z,15.43
2017-01-09T03:12:39.153Z,15.36
2017-01-09T03:13:50.482Z,15.39
2017-01-09T03:15:01.375Z,15.41
2017-01-09T03:16:12.344Z,15.46
2017-01-09T03:17:22.825Z,15.44
2017-01-09T03:18:34.150Z,15.43
2017-01-09T03:19:45.479Z,15.44
2017-01-09T03:20:56.804Z,15.36
2017-01-09T03:22:07.749Z,15.39
2017-01-09T03:23:19.078Z,15.44
2017-01-09T03:24:30.411Z,15.39
2017-01-09T03:25:41.737Z,15.46
2017-01-09T03:26:52.634Z,15.36
2017-01-09T03:28:03.584Z,15.47
2017-01-09T03:29:14.484Z,15.39
2017-01-09T03:30:25.382Z,15.35
2017-01-09T03:31:36.703Z,15.35
2017-01-09T03:32:47.176Z,15.44
2017-01-09T03:33:58.558Z,15.38
2017-01-09T03:35:09.887Z,15.38
2017-01-09T03:36:21.216Z,15.38
2017-01-09T03:37:32.554Z,15.34
2017-01-09T03:38:43.450Z,15.38
2017-01-09T03:39:54.391Z,15.36
2017-01-09T03:41:05.289Z,15.38
2017-01-09T03:42:16.190Z,15.23
2017-01-09T03:43:27.516Z,15.36
2017-01-09T03:44:38.844Z,15.29
2017-01-09T03:45:50.213Z,15.34
2017-01-09T03:47:01.107Z,15.32
2017-01-09T03:48:12.440Z,15.29
2017-01-09T03:49:23.757Z,15.34
2017-01-09T03:50:34.654Z,15.35
2017-01-09T03:51:46.036Z,15.31
2017-01-09T03:52:57.357Z,15.32
2017-01-09T03:54:08.254Z,15.31
2017-01-09T03:55:19.147Z,15.29
2017-01-09T03:56:30.472Z,15.29
2017-01-09T03:57:41.418Z,15.32
2017-01-09T03:58:52.747Z,15.27
2017-01-09T04:00:03.644Z,15.28
2017-01-09T04:01:14.541Z,15.21
2017-01-09T04:02:25.859Z,15.31
2017-01-09T04:03:36.804Z,15.21
2017-01-09T04:04:47.701Z,15.25
2017-01-09T04:05:59.027Z,15.23
2017-01-09T04:07:10.360Z,15.28
2017-01-09T04:08:21.261Z,15.23
2017-01-09T04:09:32.206Z,15.27
2017-01-09T04:10:43.528Z,15.28
2017-01-09T04:11:54.420Z,15.29
2017-01-09T04:13:05.742Z,15.14
2017-01-09T04:14:16.635Z,15.17
2017-01-09T04:15:27.632Z,15.34
2017-01-09T04:16:38.537Z,15.17
2017-01-09T04:17:49.439Z,15.2
2017-01-09T04:19:00.332Z,15.14
2017-01-09T04:20:11.225Z,15.13
2017-01-09T04:21:22.175Z,15.13
2017-01-09T04:22:33.068Z,15.23
2017-01-09T04:23:44.385Z,15.19
2017-01-09T04:24:55.278Z,15.19
2017-01-09T04:26:06.603Z,15.29
2017-01-09T04:27:17.553Z,15.25
2017-01-09T04:28:28.478Z,15.13
2017-01-09T04:29:39.799Z,15.2
2017-01-09T04:30:50.697Z,15.28
2017-01-09T04:32:01.597Z,15.17
2017-01-09T04:33:12.539Z,15.14
2017-01-09T04:34:23.032Z,15.19
2017-01-09T04:35:34.393Z,15.14
2017-01-09T04:36:45.726Z,15.27
2017-01-09T04:37:56.192Z,15.19
2017-01-09T04:39:07.565Z,15.2
2017-01-09T04:40:18.466Z,15.21
2017-01-09T04:41:29.360Z,15.17
2017-01-09T04:42:40.260Z,15.2
2017-01-09T04:43:51.577Z,15.2
2017-01-09T04:45:02.947Z,15.17
2017-01-09T04:46:14.276Z,15.07
2017-01-09T04:47:25.177Z,15.16
2017-01-09T04:48:36.075Z,15.2
2017-01-09T04:49:47.404Z,15.1
2017-01-09T04:50:58.345Z,15.2
2017-01-09T04:52:09.701Z,15.09
2017-01-09T04:53:21.036Z,15.14
2017-01-09T04:54:32.373Z,15.11
2017-01-09T04:55:43.698Z,15.2
2017-01-09T04:56:54.647Z,15.1
2017-01-09T04:58:05.968Z,15.11
2017-01-09T04:59:17.294Z,15.03
2017-01-09T05:00:28.191Z,15.14
2017-01-09T05:01:39.516Z,15.13
2017-01-09T05:02:50.889Z,15.1
2017-01-09T05:04:01.791Z,15.03
2017-01-09T05:05:12.692Z,15.16
2017-01-09T05:06:23.581Z,15.09
2017-01-09T05:07:34.060Z,15.02
2017-01-09T05:08:45.440Z,15.07
2017-01-09T05:09:56.768Z,15.03
2017-01-09T05:11:07.667Z,15.02
2017-01-09T05:12:18.559Z,15.06
2017-01-09T05:13:29.456Z,15.02
2017-01-09T05:14:40.401Z,14.99
2017-01-09T05:15:51.299Z,15.03
2017-01-09T05:17:02.620Z,15.02
2017-01-09T05:18:13.514Z,15.01
2017-01-09T05:19:24.838Z,15.07
2017-01-09T05:20:36.208Z,15.07
2017-01-09T05:21:47.108Z,14.99
2017-01-09T05:22:58.014Z,15.01
2017-01-09T05:24:08.907Z,14.99
2017-01-09T05:25:19.828Z,14.99
2017-01-09T05:26:30.770Z,14.98
2017-01-09T05:27:41.227Z,15.07
2017-01-09T05:28:52.124Z,14.96
2017-01-09T05:30:03.025Z,14.96
2017-01-09T05:31:14.351Z,14.99
2017-01-09T05:32:25.724Z,15.01
2017-01-09T05:33:36.625Z,14.94
2017-01-09T05:34:47.966Z,14.96
2017-01-09T05:35:59.284Z,14.96
2017-01-09T05:37:10.177Z,14.94
2017-01-09T05:38:21.546Z,15.01
2017-01-09T05:39:32.867Z,14.96
2017-01-09T05:40:43.760Z,14.88
2017-01-09T05:41:55.089Z,14.99
2017-01-09T05:43:06.015Z,14.96
2017-01-09T05:44:17.392Z,15.02
2017-01-09T05:45:28.733Z,14.99
2017-01-09T05:46:39.630Z,14.94
2017-01-09T05:47:50.527Z,14.91
2017-01-09T05:49:01.857Z,14.98
2017-01-09T05:50:12.798Z,14.92
2017-01-09T05:51:24.147Z,14.94
2017-01-09T05:52:35.472Z,14.92
2017-01-09T05:53:46.365Z,14.94
2017-01-09T05:54:57.255Z,14.94
2017-01-09T05:56:08.208Z,14.91
2017-01-09T05:57:19.541Z,14.89
2017-01-09T05:58:30.866Z,14.89
2017-01-09T05:59:42.227Z,14.88
2017-01-09T06:00:53.553Z,14.89
2017-01-09T06:02:04.510Z,14.96
2017-01-09T06:03:15.843Z,14.88
2017-01-09T06:04:26.736Z,14.89
2017-01-09T06:05:37.634Z,14.92
2017-01-09T06:06:48.543Z,14.91
2017-01-09T06:07:59.484Z,14.94
2017-01-09T06:09:10.381Z,14.89
2017-01-09T06:10:21.710Z,14.95
2017-01-09T06:11:33.035Z,14.73
2017-01-09T06:12:43.928Z,14.91
2017-01-09T06:13:55.302Z,14.88
2017-01-09T06:15:06.195Z,14.73
2017-01-09T06:16:17.100Z,14.89
2017-01-09T06:17:28.457Z,14.7
2017-01-09T06:18:39.359Z,14.83
2017-01-09T06:19:49.887Z,14.88
2017-01-09T06:21:00.814Z,14.84
2017-01-09T06:22:12.146Z,14.88
2017-01-09T06:23:23.035Z,14.86
2017-01-09T06:24:33.924Z,14.83
2017-01-09T06:25:45.298Z,14.88
2017-01-09T06:26:56.199Z,14.72
2017-01-09T06:28:07.104Z,14.92
2017-01-09T06:29:18.421Z,14.83
2017-01-09T06:30:29.314Z,14.86
2017-01-09T06:31:40.687Z,14.75
2017-01-09T06:32:52.009Z,14.83
2017-01-09T06:34:03.326Z,14.8
2017-01-09T06:35:14.231Z,14.81
2017-01-09T06:36:25.560Z,14.81
2017-01-09T06:37:36.933Z,14.88
2017-01-09T06:38:48.267Z,14.78
2017-01-09T06:39:58.732Z,14.84
2017-01-09T06:41:10.049Z,14.72
2017-01-09T06:42:21.398Z,14.8
2017-01-09T06:43:32.867Z,14.83
2017-01-09T06:44:44.192Z,14.78
2017-01-09T06:45:55.098Z,14.72
2017-01-09T06:47:06.431Z,14.73
2017-01-09T06:48:17.340Z,14.73
2017-01-09T06:49:28.285Z,14.72
2017-01-09T06:50:39.614Z,14.69
2017-01-09T06:51:50.947Z,14.72
2017-01-09T06:53:02.269Z,14.77
2017-01-09T06:54:13.178Z,14.65
2017-01-09T06:55:24.119Z,14.72
2017-01-09T06:56:35.445Z,14.75
2017-01-09T06:57:46.341Z,14.75
2017-01-09T06:58:57.230Z,14.7
2017-01-09T07:00:08.556Z,14.72
2017-01-09T07:01:19.505Z,14.68
2017-01-09T07:02:30.838Z,14.7
2017-01-09T07:03:41.735Z,14.73
2017-01-09T07:04:53.052Z,14.7
2017-01-09T07:06:04.381Z,14.65
2017-01-09T07:07:15.919Z,14.7
2017-01-09T07:08:26.816Z,14.7
2017-01-09T07:09:37.713Z,14.72
2017-01-09T07:10:49.030Z,14.69
2017-01-09T07:11:59.931Z,14.65
2017-01-09T07:13:10.884Z,14.68
2017-01-09T07:14:22.205Z,14.65
2017-01-09T07:15:33.526Z,14.72
2017-01-09T07:16:44.420Z,14.65
2017-01-09T07:17:55.309Z,14.69
2017-01-09T07:19:06.254Z,14.61
2017-01-09T07:20:17.180Z,14.65
2017-01-09T07:21:28.501Z,14.64
2017-01-09T07:22:39.833Z,14.69
2017-01-09T07:23:51.159Z,14.68
2017-01-09T07:25:02.100Z,14.72
2017-01-09T07:26:13.433Z,14.64
2017-01-09T07:27:24.754Z,14.62
2017-01-09T07:28:35.655Z,14.68
2017-01-09T07:29:46.568Z,14.62
2017-01-09T07:30:57.946Z,14.65
2017-01-09T07:32:09.275Z,14.7
2017-01-09T07:33:20.600Z,14.61
2017-01-09T07:34:31.505Z,14.6
2017-01-09T07:35:42.406Z,14.65
2017-01-09T07:36:53.351Z,14.73
2017-01-09T07:38:04.249Z,14.7
2017-01-09T07:39:15.586Z,14.6
2017-01-09T07:40:26.483Z,14.62
2017-01-09T07:41:37.384Z,14.68
2017-01-09T07:42:48.325Z,14.64
2017-01-09T07:43:59.650Z,14.65
2017-01-09T07:45:10.579Z,14.68
2017-01-09T07:46:21.489Z,14.65
2017-01-09T07:47:32.810Z,14.62
2017-01-09T07:48:43.859Z,14.61
2017-01-09T07:49:55.180Z,14.6
2017-01-09T07:51:06.493Z,14.61
2017-01-09T07:52:17.394Z,14.61
2017-01-09T07:53:28.715Z,14.62
2017-01-09T07:54:39.657Z,14.58
2017-01-09T07:55:50.558Z,14.57
2017-01-09T07:57:01.875Z,14.6
2017-01-09T07:58:13.212Z,14.64
2017-01-09T07:59:24.113Z,14.68
2017-01-09T08:00:35.059Z,14.61
2017-01-09T08:01:45.956Z,14.62
2017-01-09T08:02:56.853Z,14.65
2017-01-09T08:04:08.178Z,14.62
2017-01-09T08:05:19.495Z,14.65
2017-01-09T08:06:30.440Z,14.65
2017-01-09T08:07:41.765Z,14.65
2017-01-09T08:08:52.662Z,14.64
2017-01-09T08:10:03.984Z,14.64
2017-01-09T08:11:15.309Z,14.62
2017-01-09T08:12:25.822Z,14.61
2017-01-09T08:13:36.292Z,14.6
2017-01-09T08:14:47.624Z,14.58
2017-01-09T08:15:58.955Z,14.64
2017-01-09T08:17:09.875Z,14.61
2017-01-09T08:18:20.816Z,14.62
2017-01-09T08:19:32.137Z,14.64
2017-01-09T08:20:43.054Z,14.62
2017-01-09T08:21:54.376Z,14.65
2017-01-09T08:23:05.273Z,14.62
2017-01-09T08:24:16.214Z,14.61
2017-01-09T08:25:27.107Z,14.61
2017-01-09T08:26:38.424Z,14.58
2017-01-09T08:27:49.321Z,14.57
2017-01-09T08:29:00.220Z,14.69
2017-01-09T08:30:11.600Z,14.68
2017-01-09T08:31:22.917Z,14.68
2017-01-09T08:32:33.814Z,14.68
2017-01-09T08:33:44.288Z,14.64
2017-01-09T08:34:55.196Z,14.65
2017-01-09T08:36:06.569Z,14.7
2017-01-09T08:37:17.898Z,14.64
2017-01-09T08:38:29.228Z,14.69
2017-01-09T08:39:40.129Z,14.65
2017-01-09T08:40:51.018Z,14.72
2017-01-09T08:42:02.391Z,14.72
2017-01-09T08:43:13.296Z,14.6
2017-01-09T08:44:24.198Z,14.72
2017-01-09T08:45:35.094Z,14.7
2017-01-09T08:46:46.420Z,14.62
2017-01-09T08:47:57.789Z,14.69
2017-01-09T08:49:08.258Z,14.7
2017-01-09T08:50:19.159Z,14.62
2017-01-09T08:51:30.476Z,14.7
2017-01-09T08:52:40.954Z,14.65
2017-01-09T08:53:52.330Z,14.69
2017-01-09T08:55:03.676Z,14.69
2017-01-09T08:56:15.005Z,14.7
2017-01-09T08:57:25.894Z,14.68
2017-01-09T08:58:36.796Z,14.65
2017-01-09T08:59:48.169Z,14.77
2017-01-09T09:00:59.062Z,14.7
2017-01-09T09:02:10.387Z,14.75
2017-01-09T09:03:21.712Z,14.69
2017-01-09T09:04:32.598Z,14.7
2017-01-09T09:05:43.551Z,14.75
2017-01-09T09:06:54.020Z,14.8
2017-01-09T09:08:04.926Z,14.73
2017-01-09T09:09:15.826Z,14.78
2017-01-09T09:10:26.723Z,14.78
2017-01-09T09:11:37.677Z,14.75
2017-01-09T09:12:48.609Z,14.78
2017-01-09T09:13:59.079Z,14.81
2017-01-09T09:15:10.004Z,14.64
2017-01-09T09:16:21.341Z,14.83
2017-01-09T09:17:32.291Z,14.72
2017-01-09T09:18:43.616Z,14.84
2017-01-09T09:19:54.097Z,14.77
2017-01-09T09:21:04.990Z,14.77
2017-01-09T09:22:15.451Z,14.78
2017-01-09T09:23:26.397Z,14.73
2017-01-09T09:24:37.750Z,14.86
2017-01-09T09:25:48.651Z,14.8
2017-01-09T09:26:59.976Z,14.81
2017-01-09T09:28:11.309Z,14.8
2017-01-09T09:29:22.682Z,14.78
2017-01-09T09:30:33.575Z,14.7
2017-01-09T09:31:44.473Z,14.78
2017-01-09T09:32:55.800Z,14.81
2017-01-09T09:34:06.695Z,14.81
2017-01-09T09:35:18.066Z,14.78
2017-01-09T09:36:29.389Z,14.88
2017-01-09T09:37:40.287Z,14.77
2017-01-09T09:38:51.612Z,14.83
2017-01-09T09:40:02.509Z,14.72
2017-01-09T09:41:13.883Z,14.84
2017-01-09T09:42:24.780Z,14.84
2017-01-09T09:43:36.125Z,14.75
2017-01-09T09:44:47.022Z,14.83
2017-01-09T09:45:58.344Z,14.77
2017-01-09T09:47:09.720Z,14.81
2017-01-09T09:48:21.037Z,14.83
2017-01-09T09:49:31.939Z,14.8
2017-01-09T09:50:43.264Z,14.77
2017-01-09T09:51:54.586Z,14.88
2017-01-09T09:53:05.535Z,14.91
2017-01-09T09:54:16.860Z,14.73
2017-01-09T09:55:27.753Z,14.92
2017-01-09T09:56:39.082Z,14.96
2017-01-09T09:57:49.980Z,14.95
2017-01-09T09:59:01.345Z,14.88
2017-01-09T10:00:12.242Z,14.89
2017-01-09T10:01:23.599Z,15.01
2017-01-09T10:02:34.929Z,14.98
2017-01-09T10:03:45.826Z,15.01
2017-01-09T10:04:56.339Z,15.02
2017-01-09T10:06:06.816Z,14.95
2017-01-09T10:07:18.145Z,15.02
2017-01-09T10:08:29.474Z,15.07
2017-01-09T10:09:40.800Z,15.03
2017-01-09T10:10:51.761Z,14.99
2017-01-09T10:12:03.078Z,15.09
2017-01-09T10:13:14.399Z,15.01
2017-01-09T10:14:25.292Z,15.02
2017-01-09T10:15:36.610Z,15.02
2017-01-09T10:16:47.555Z,15.1
2017-01-09T10:17:58.448Z,15.03
2017-01-09T10:19:09.341Z,15.07
2017-01-09T10:20:20.243Z,15.06
2017-01-09T10:21:31.576Z,15.11
2017-01-09T10:22:42.945Z,15.09
2017-01-09T10:23:54.278Z,15.11
2017-01-09T10:25:05.171Z,15.13
2017-01-09T10:26:16.068Z,15.1
2017-01-09T10:27:27.402Z,15.11
2017-01-09T10:28:38.343Z,15.03
2017-01-09T10:29:49.664Z,15.02
2017-01-09T10:31:00.998Z,15.09
2017-01-09T10:32:11.895Z,15.17
2017-01-09T10:33:23.224Z,15.17
2017-01-09T10:34:34.606Z,15.17
2017-01-09T10:35:45.506Z,15.13
2017-01-09T10:36:56.395Z,15.14
2017-01-09T10:38:07.297Z,15.23
2017-01-09T10:39:18.618Z,15.16
2017-01-09T10:40:29.559Z,15.1
2017-01-09T10:41:40.889Z,15.21
2017-01-09T10:42:52.206Z,15.23
2017-01-09T10:44:03.099Z,15.13
2017-01-09T10:45:14.464Z,15.16
2017-01-09T10:46:25.405Z,15.19
2017-01-09T10:47:36.310Z,15.16
2017-01-09T10:48:47.643Z,15.23
2017-01-09T10:49:58.592Z,15.13
2017-01-09T10:51:09.922Z,15.21
2017-01-09T10:52:21.300Z,15.28
2017-01-09T10:53:32.633Z,15.07
2017-01-09T10:54:43.954Z,15.14
2017-01-09T10:55:54.851Z,15.2
2017-01-09T10:57:06.176Z,15.25
2017-01-09T10:58:17.129Z,15.28
2017-01-09T10:59:28.455Z,15.14
2017-01-09T11:00:39.356Z,15.23
2017-01-09T11:01:50.253Z,15.19
2017-01-09T11:03:01.147Z,15.21
2017-01-09T11:04:12.096Z,15.2
2017-01-09T11:05:23.420Z,15.23
2017-01-09T11:06:34.746Z,15.21
2017-01-09T11:07:46.067Z,15.17
2017-01-09T11:08:57.393Z,15.19
2017-01-09T11:10:08.334Z,15.21
2017-01-09T11:11:19.255Z,15.21
2017-01-09T11:12:29.724Z,15.32
2017-01-09T11:13:41.054Z,15.2
2017-01-09T11:14:52.375Z,15.25
2017-01-09T11:16:03.320Z,15.28
2017-01-09T11:17:14.221Z,15.23
2017-01-09T11:18:24.682Z,15.23
2017-01-09T11:19:35.587Z,15.23
2017-01-09T11:20:46.920Z,15.2
2017-01-09T11:21:57.869Z,15.2
2017-01-09T11:23:09.191Z,15.21
2017-01-09T11:24:20.096Z,15.23
2017-01-09T11:25:30.995Z,15.28
2017-01-09T11:26:41.890Z,15.29
2017-01-09T11:27:53.260Z,15.27
2017-01-09T11:29:04.585Z,15.17
2017-01-09T11:30:15.910Z,15.2
2017-01-09T11:31:26.808Z,15.21
2017-01-09T11:32:38.141Z,15.21
2017-01-09T11:33:49.526Z,15.21
2017-01-09T11:35:00.875Z,15.28
2017-01-09T11:36:11.780Z,15.2
2017-01-09T11:37:22.674Z,15.25
2017-01-09T11:38:33.999Z,15.23
2017-01-09T11:39:45.384Z,15.11
2017-01-09T11:40:56.721Z,15.17
2017-01-09T11:42:08.046Z,15.1
2017-01-09T11:43:18.948Z,15.16
2017-01-09T11:44:29.845Z,15.31
2017-01-09T11:45:41.223Z,15.25
2017-01-09T11:46:52.539Z,15.14
2017-01-09T11:48:03.880Z,15.13
2017-01-09T11:49:15.209Z,15.25
2017-01-09T11:50:26.103Z,15.17
2017-01-09T11:51:37.056Z,15.13
2017-01-09T11:52:47.961Z,15.21
2017-01-09T11:53:58.858Z,15.16
2017-01-09T11:55:09.763Z,15.25
2017-01-09T11:56:21.084Z,15.17
2017-01-09T11:57:32.029Z,15.16
2017-01-09T11:58:43.358Z,15.21
2017-01-09T11:59:54.679Z,15.2
2017-01-09T12:01:05.576Z,15.13
2017-01-09T12:02:16.477Z,15.25
2017-01-09T12:03:27.458Z,15.2
2017-01-09T12:04:38.359Z,15.2
2017-01-09T12:05:49.692Z,15.11
2017-01-09T12:07:00.593Z,15.1
2017-01-09T12:08:11.490Z,15.17
2017-01-09T12:09:22.855Z,15.06
2017-01-09T12:10:33.756Z,15.06
2017-01-09T12:11:44.645Z,15.07
2017-01-09T12:12:55.974Z,15.07
2017-01-09T12:14:06.867Z,15.1
2017-01-09T12:15:17.808Z,15.03
2017-01-09T12:16:28.709Z,15.09
2017-01-09T12:17:40.039Z,14.98
2017-01-09T12:18:50.936Z,15.03
2017-01-09T12:20:02.261Z,15.13
2017-01-09T12:21:13.638Z,15.11
2017-01-09T12:22:24.535Z,15.07
2017-01-09T12:23:35.858Z,15.03
2017-01-09T12:24:47.189Z,15.07
2017-01-09T12:25:58.514Z,15.1
2017-01-09T12:27:09.992Z,15.11
2017-01-09T12:28:21.320Z,15.01
2017-01-09T12:29:32.218Z,15.07
2017-01-09T12:30:43.543Z,15.01
2017-01-09T12:31:54.444Z,15.03
2017-01-09T12:33:05.821Z,15.02
2017-01-09T12:34:17.146Z,15.1
2017-01-09T12:35:28.056Z,15.07
2017-01-09T12:36:38.948Z,15.01
2017-01-09T12:37:49.842Z,15.11
2017-01-09T12:39:00.791Z,15.03
2017-01-09T12:40:12.120Z,15.1
2017-01-09T12:41:23.445Z,15.03
2017-01-09T12:42:34.790Z,15.1
2017-01-09T12:43:45.715Z,14.98
2017-01-09T12:44:57.089Z,14.98
2017-01-09T12:46:07.990Z,14.98
2017-01-09T12:47:18.459Z,14.99
2017-01-09T12:48:29.364Z,15.02
2017-01-09T12:49:40.681Z,14.99
2017-01-09T12:50:51.206Z,14.94
2017-01-09T12:52:02.104Z,15.01
2017-01-09T12:53:13.009Z,14.96
2017-01-09T12:54:23.918Z,14.91
2017-01-09T12:55:34.391Z,14.96
2017-01-09T12:56:45.760Z,14.94
2017-01-09T12:57:57.089Z,14.96
2017-01-09T12:59:07.986Z,14.91
2017-01-09T13:00:19.315Z,14.94
2017-01-09T13:01:30.637Z,14.96
2017-01-09T13:02:41.581Z,14.96
2017-01-09T13:03:52.903Z,14.92
2017-01-09T13:05:03.804Z,14.95
2017-01-09T13:06:15.137Z,14.94
2017-01-09T13:07:26.035Z,14.92
2017-01-09T13:08:37.420Z,14.91
2017-01-09T13:09:48.741Z,14.99
2017-01-09T13:11:00.070Z,14.95
2017-01-09T13:12:10.967Z,14.91
2017-01-09T13:13:22.293Z,14.88
2017-01-09T13:14:33.246Z,14.89
2017-01-09T13:15:44.151Z,14.99
2017-01-09T13:16:55.057Z,15.01
2017-01-09T13:18:06.377Z,15.07
2017-01-09T13:19:17.275Z,15.09
2017-01-09T13:20:28.228Z,15.16
2017-01-09T13:21:39.133Z,15.19
2017-01-09T13:22:50.459Z,15.28
2017-01-09T13:24:01.360Z,15.2
2017-01-09T13:25:12.257Z,15.28
2017-01-09T13:26:23.638Z,15.28
2017-01-09T13:27:34.535Z,15.25
2017-01-09T13:28:45.464Z,15.36
2017-01-09T13:29:56.366Z,15.27
2017-01-09T13:31:07.272Z,15.41
2017-01-09T13:32:18.636Z,15.43
2017-01-09T13:33:29.957Z,15.43
2017-01-09T13:34:40.859Z,15.43
2017-01-09T13:35:51.764Z,15.36
2017-01-09T13:37:03.093Z,15.38
2017-01-09T13:38:14.458Z,15.49
2017-01-09T13:39:25.368Z,15.49
2017-01-09T13:40:36.272Z,15.5
2017-01-09T13:41:47.602Z,15.5
2017-01-09T13:42:58.927Z,15.54
2017-01-09T13:44:09.872Z,15.57
2017-01-09T13:45:21.202Z,15.64
2017-01-09T13:46:31.679Z,15.57
2017-01-09T13:47:43.032Z,15.62
2017-01-09T13:48:54.353Z,15.68
2017-01-09T13:50:05.302Z,15.65
2017-01-09T13:51:16.204Z,15.62
2017-01-09T13:52:27.104Z,15.69
2017-01-09T13:53:38.002Z,15.71
2017-01-09T13:54:48.903Z,15.71
2017-01-09T13:55:59.853Z,15.75
2017-01-09T13:57:10.754Z,15.74
2017-01-09T13:58:22.119Z,15.74
2017-01-09T13:59:32.580Z,15.65
2017-01-09T14:00:43.481Z,15.64
2017-01-09T14:01:54.862Z,15.64
2017-01-09T14:03:06.188Z,15.65
2017-01-09T14:04:17.517Z,15.57
2017-01-09T14:05:28.414Z,15.6
2017-01-09T14:06:39.747Z,15.59
2017-01-09T14:07:51.121Z,15.6
2017-01-09T14:09:02.434Z,15.54
2017-01-09T14:10:12.959Z,15.54
2017-01-09T14:11:24.276Z,15.39
2017-01-09T14:12:35.174Z,15.36
2017-01-09T14:13:46.571Z,15.38
2017-01-09T14:14:57.884Z,15.39
2017-01-09T14:16:09.213Z,15.38
2017-01-09T14:17:20.535Z,15.35
2017-01-09T14:18:31.435Z,15.31
2017-01-09T14:19:42.377Z,15.35
2017-01-09T14:20:53.270Z,15.27
2017-01-09T14:22:04.599Z,15.32
2017-01-09T14:23:15.924Z,15.25
2017-01-09T14:24:26.822Z,15.28
2017-01-09T14:25:38.199Z,15.32
2017-01-09T14:26:49.520Z,15.2
2017-01-09T14:28:00.854Z,15.14
2017-01-09T14:29:12.175Z,15.16
2017-01-09T14:30:23.068Z,15.16
2017-01-09T14:31:34.009Z,15.25
2017-01-09T14:32:44.910Z,15.2
2017-01-09T14:33:55.811Z,15.13
2017-01-09T14:35:06.713Z,15.17
2017-01-09T14:36:17.606Z,15.16
2017-01-09T14:37:28.984Z,15.09
2017-01-09T14:38:40.332Z,15.14
2017-01-09T14:39:51.658Z,15.02
2017-01-09T14:41:02.555Z,15.03
2017-01-09T14:42:13.459Z,15.01
2017-01-09T14:43:24.834Z,14.92
2017-01-09T14:44:35.734Z,15.06
2017-01-09T14:45:46.628Z,14.96
2017-01-09T14:46:57.957Z,14.95
2017-01-09T14:48:08.859Z,14.91
2017-01-09T14:49:20.228Z,14.92
2017-01-09T14:50:31.134Z,14.83
2017-01-09T14:51:42.458Z,14.83
2017-01-09T14:52:53.360Z,14.86
2017-01-09T14:54:04.257Z,14.77
2017-01-09T14:55:15.202Z,14.77
2017-01-09T14:56:26.523Z,14.73
2017-01-09T14:57:37.420Z,14.73
2017-01-09T14:58:48.750Z,14.72
2017-01-09T14:59:59.643Z,14.75
2017-01-09T15:01:10.596Z,14.73
2017-01-09T15:02:21.921Z,14.7
2017-01-09T15:03:33.250Z,14.81
2017-01-09T15:04:44.143Z,14.7
2017-01-09T15:05:55.040Z,14.65
2017-01-09T15:07:06.414Z,14.77
2017-01-09T15:08:17.329Z,14.69
2017-01-09T15:09:28.228Z,14.68
2017-01-09T15:10:38.718Z,14.65
2017-01-09T15:11:50.047Z,14.58
2017-01-09T15:13:01.412Z,14.65
2017-01-09T15:14:12.321Z,14.61
2017-01-09T15:15:23.218Z,14.62
2017-01-09T15:16:34.119Z,14.57
2017-01-09T15:17:45.436Z,14.51
2017-01-09T15:18:56.442Z,14.6